sensor_id;sensor_type;location;lat;lon;timestamp;temperature;humidity
20946;DHT22;10632;51.276;7.116;2023-05-07T00:00:44;13.60;99.90
20946;DHT22;10632;51.276;7.116;2023-05-07T00:03:12;13.70;99.90
20946;DHT22;10632;51.276;7.116;2023-05-07T00:05:39;13.60;99.90
20946;DHT22;10632;51.276;7.116;2023-05-07T00:08:07;13.70;99.90
20946;DHT22;10632;51.276;7.116;2023-05-07T00:10:34;13.70;99.90
20946;DHT22;10632;51.276;7.116;2023-05-07T00:13:01;13.70;99.90
20946;DHT22;10632;51.276;7.116;2023-05-07T00:15:27;13.70;99.90
20946;DHT22;10632;51.276;7.116;2023-05-07T00:17:55;13.70;99.90
20946;DHT22;10632;51.276;7.116;2023-05-07T00:20:28;13.80;99.90
20946;DHT22;10632;51.276;7.116;2023-05-07T00:22:55;13.80;99.90
20946;DHT22;10632;51.276;7.116;2023-05-07T00:25:22;13.80;99.90
20946;DHT22;10632;51.276;7.116;2023-05-07T00:27:49;13.80;99.90
20946;DHT22;10632;51.276;7.116;2023-05-07T00:30:16;13.80;99.90
20946;DHT22;10632;51.276;7.116;2023-05-07T00:32:44;13.80;99.90
20946;DHT22;10632;51.276;7.116;2023-05-07T00:35:11;13.80;99.90
20946;DHT22;10632;51.276;7.116;2023-05-07T00:37:42;13.80;99.90
20946;DHT22;10632;51.276;7.116;2023-05-07T00:40:09;13.80;99.90
20946;DHT22;10632;51.276;7.116;2023-05-07T00:42:39;13.80;99.90
20946;DHT22;10632;51.276;7.116;2023-05-07T00:45:06;13.80;99.90
20946;DHT22;10632;51.276;7.116;2023-05-07T00:47:34;13.80;99.90
20946;DHT22;10632;51.276;7.116;2023-05-07T00:50:01;13.80;99.90
20946;DHT22;10632;51.276;7.116;2023-05-07T00:52:29;13.70;99.90
20946;DHT22;10632;51.276;7.116;2023-05-07T00:54:57;13.70;99.90
20946;DHT22;10632;51.276;7.116;2023-05-07T00:57:25;13.70;99.90
20946;DHT22;10632;51.276;7.116;2023-05-07T00:59:52;13.70;99.90
20946;DHT22;10632;51.276;7.116;2023-05-07T01:02:19;13.70;99.90
20946;DHT22;10632;51.276;7.116;2023-05-07T01:04:46;13.70;99.90
20946;DHT22;10632;51.276;7.116;2023-05-07T01:07:13;13.70;99.90
20946;DHT22;10632;51.276;7.116;2023-05-07T01:09:40;13.70;99.90
20946;DHT22;10632;51.276;7.116;2023-05-07T01:12:09;13.70;99.90
20946;DHT22;10632;51.276;7.116;2023-05-07T01:14:36;13.70;99.90
20946;DHT22;10632;51.276;7.116;2023-05-07T01:17:03;13.60;99.90
20946;DHT22;10632;51.276;7.116;2023-05-07T01:19:30;13.70;99.90
20946;DHT22;10632;51.276;7.116;2023-05-07T01:22:02;13.70;99.90
20946;DHT22;10632;51.276;7.116;2023-05-07T01:24:32;13.70;99.90
20946;DHT22;10632;51.276;7.116;2023-05-07T01:26:59;13.70;99.90
20946;DHT22;10632;51.276;7.116;2023-05-07T01:29:28;13.60;99.90
20946;DHT22;10632;51.276;7.116;2023-05-07T01:31:56;13.60;99.90
20946;DHT22;10632;51.276;7.116;2023-05-07T01:34:25;13.60;99.90
20946;DHT22;10632;51.276;7.116;2023-05-07T01:36:54;13.70;99.90
20946;DHT22;10632;51.276;7.116;2023-05-07T01:39:24;13.70;99.90
20946;DHT22;10632;51.276;7.116;2023-05-07T01:41:54;13.60;99.90
20946;DHT22;10632;51.276;7.116;2023-05-07T01:44:22;13.60;99.90
20946;DHT22;10632;51.276;7.116;2023-05-07T01:46:49;13.60;99.90
20946;DHT22;10632;51.276;7.116;2023-05-07T01:49:17;13.60;99.90
20946;DHT22;10632;51.276;7.116;2023-05-07T01:51:44;13.60;99.90
20946;DHT22;10632;51.276;7.116;2023-05-07T01:54:11;13.60;99.90
20946;DHT22;10632;51.276;7.116;2023-05-07T01:56:37;13.60;99.90
20946;DHT22;10632;51.276;7.116;2023-05-07T01:59:06;13.60;99.90
20946;DHT22;10632;51.276;7.116;2023-05-07T02:01:33;13.60;99.90
20946;DHT22;10632;51.276;7.116;2023-05-07T02:04:01;13.50;99.90
20946;DHT22;10632;51.276;7.116;2023-05-07T02:06:27;13.50;99.90
20946;DHT22;10632;51.276;7.116;2023-05-07T02:08:54;13.50;99.90
20946;DHT22;10632;51.276;7.116;2023-05-07T02:11:21;13.50;99.90
20946;DHT22;10632;51.276;7.116;2023-05-07T02:13:48;13.50;99.90
20946;DHT22;10632;51.276;7.116;2023-05-07T02:16:19;13.50;99.90
20946;DHT22;10632;51.276;7.116;2023-05-07T02:18:46;13.50;99.90
20946;DHT22;10632;51.276;7.116;2023-05-07T02:21:16;13.50;99.90
20946;DHT22;10632;51.276;7.116;2023-05-07T02:23:43;13.50;99.90
20946;DHT22;10632;51.276;7.116;2023-05-07T02:26:10;13.50;99.90
20946;DHT22;10632;51.276;7.116;2023-05-07T02:28:37;13.50;99.90
20946;DHT22;10632;51.276;7.116;2023-05-07T02:31:04;13.40;99.90
20946;DHT22;10632;51.276;7.116;2023-05-07T02:33:32;13.40;99.90
20946;DHT22;10632;51.276;7.116;2023-05-07T02:36:06;13.40;99.90
20946;DHT22;10632;51.276;7.116;2023-05-07T02:38:33;13.40;99.90
20946;DHT22;10632;51.276;7.116;2023-05-07T02:41:00;13.40;99.90
20946;DHT22;10632;51.276;7.116;2023-05-07T02:43:27;13.40;99.90
20946;DHT22;10632;51.276;7.116;2023-05-07T02:46:01;13.40;99.90
20946;DHT22;10632;51.276;7.116;2023-05-07T02:48:28;13.40;99.90
20946;DHT22;10632;51.276;7.116;2023-05-07T02:50:56;13.40;99.90
20946;DHT22;10632;51.276;7.116;2023-05-07T02:53:23;13.40;99.90
20946;DHT22;10632;51.276;7.116;2023-05-07T02:55:51;13.30;99.90
20946;DHT22;10632;51.276;7.116;2023-05-07T02:58:19;13.30;99.90
20946;DHT22;10632;51.276;7.116;2023-05-07T03:00:46;13.30;99.90
20946;DHT22;10632;51.276;7.116;2023-05-07T03:03:13;13.30;99.90
20946;DHT22;10632;51.276;7.116;2023-05-07T03:05:40;13.30;99.90
20946;DHT22;10632;51.276;7.116;2023-05-07T03:08:08;13.30;99.90
20946;DHT22;10632;51.276;7.116;2023-05-07T03:10:36;13.30;99.90
20946;DHT22;10632;51.276;7.116;2023-05-07T03:13:03;13.30;99.90
20946;DHT22;10632;51.276;7.116;2023-05-07T03:15:30;13.30;99.90
20946;DHT22;10632;51.276;7.116;2023-05-07T03:17:57;13.30;99.90
20946;DHT22;10632;51.276;7.116;2023-05-07T03:20:24;13.30;99.90
20946;DHT22;10632;51.276;7.116;2023-05-07T03:22:51;13.30;99.90
20946;DHT22;10632;51.276;7.116;2023-05-07T03:25:19;13.30;99.90
20946;DHT22;10632;51.276;7.116;2023-05-07T03:27:46;13.30;99.90
20946;DHT22;10632;51.276;7.116;2023-05-07T03:30:13;13.30;99.90
20946;DHT22;10632;51.276;7.116;2023-05-07T03:32:40;13.30;99.90
20946;DHT22;10632;51.276;7.116;2023-05-07T03:35:07;13.30;99.90
20946;DHT22;10632;51.276;7.116;2023-05-07T03:37:34;13.30;99.90
20946;DHT22;10632;51.276;7.116;2023-05-07T03:40:00;13.30;99.90
20946;DHT22;10632;51.276;7.116;2023-05-07T03:42:29;13.30;99.90
20946;DHT22;10632;51.276;7.116;2023-05-07T03:44:59;13.30;99.90
20946;DHT22;10632;51.276;7.116;2023-05-07T03:50:01;13.30;99.90
20946;DHT22;10632;51.276;7.116;2023-05-07T03:52:29;13.30;99.90
20946;DHT22;10632;51.276;7.116;2023-05-07T03:54:57;13.30;99.90
20946;DHT22;10632;51.276;7.116;2023-05-07T03:57:23;13.30;99.90
20946;DHT22;10632;51.276;7.116;2023-05-07T03:59:52;13.30;99.90
20946;DHT22;10632;51.276;7.116;2023-05-07T04:02:19;13.30;99.90
20946;DHT22;10632;51.276;7.116;2023-05-07T04:04:47;13.30;99.90
20946;DHT22;10632;51.276;7.116;2023-05-07T04:07:14;13.30;99.90
20946;DHT22;10632;51.276;7.116;2023-05-07T04:09:44;13.30;99.90
20946;DHT22;10632;51.276;7.116;2023-05-07T04:12:11;13.30;99.90
20946;DHT22;10632;51.276;7.116;2023-05-07T04:14:38;13.20;99.90
20946;DHT22;10632;51.276;7.116;2023-05-07T04:17:07;13.20;99.90
20946;DHT22;10632;51.276;7.116;2023-05-07T04:19:37;13.20;99.90
20946;DHT22;10632;51.276;7.116;2023-05-07T04:22:23;13.10;99.90
20946;DHT22;10632;51.276;7.116;2023-05-07T04:24:50;13.10;99.90
20946;DHT22;10632;51.276;7.116;2023-05-07T04:27:19;13.10;99.90
20946;DHT22;10632;51.276;7.116;2023-05-07T04:29:47;13.10;99.90
20946;DHT22;10632;51.276;7.116;2023-05-07T04:32:15;13.10;99.90
20946;DHT22;10632;51.276;7.116;2023-05-07T04:34:43;13.10;99.90
20946;DHT22;10632;51.276;7.116;2023-05-07T04:37:10;13.10;99.90
20946;DHT22;10632;51.276;7.116;2023-05-07T04:39:37;13.20;99.90
20946;DHT22;10632;51.276;7.116;2023-05-07T04:42:04;13.20;99.90
20946;DHT22;10632;51.276;7.116;2023-05-07T04:44:33;13.20;99.90
20946;DHT22;10632;51.276;7.116;2023-05-07T04:47:01;13.20;99.90
20946;DHT22;10632;51.276;7.116;2023-05-07T04:49:30;13.20;99.90
20946;DHT22;10632;51.276;7.116;2023-05-07T04:51:57;13.20;99.90
20946;DHT22;10632;51.276;7.116;2023-05-07T04:54:25;13.20;99.90
20946;DHT22;10632;51.276;7.116;2023-05-07T04:56:52;13.20;99.90
20946;DHT22;10632;51.276;7.116;2023-05-07T04:59:22;13.20;99.90
20946;DHT22;10632;51.276;7.116;2023-05-07T05:01:49;13.20;99.90
20946;DHT22;10632;51.276;7.116;2023-05-07T05:04:16;13.30;99.90
20946;DHT22;10632;51.276;7.116;2023-05-07T05:06:44;13.30;99.90
20946;DHT22;10632;51.276;7.116;2023-05-07T05:09:11;13.30;99.90
20946;DHT22;10632;51.276;7.116;2023-05-07T05:11:39;13.30;99.90
20946;DHT22;10632;51.276;7.116;2023-05-07T05:14:05;13.40;99.90
20946;DHT22;10632;51.276;7.116;2023-05-07T05:16:32;13.40;99.90
20946;DHT22;10632;51.276;7.116;2023-05-07T05:19:01;13.50;99.90
20946;DHT22;10632;51.276;7.116;2023-05-07T05:21:28;13.50;99.90
20946;DHT22;10632;51.276;7.116;2023-05-07T05:23:57;13.50;99.90
20946;DHT22;10632;51.276;7.116;2023-05-07T05:26:27;13.50;99.90
20946;DHT22;10632;51.276;7.116;2023-05-07T05:28:55;13.60;99.90
20946;DHT22;10632;51.276;7.116;2023-05-07T05:31:22;13.60;99.90
20946;DHT22;10632;51.276;7.116;2023-05-07T05:33:49;13.60;99.90
20946;DHT22;10632;51.276;7.116;2023-05-07T05:36:16;13.60;99.90
20946;DHT22;10632;51.276;7.116;2023-05-07T05:38:43;13.70;99.90
20946;DHT22;10632;51.276;7.116;2023-05-07T05:41:12;13.70;99.90
20946;DHT22;10632;51.276;7.116;2023-05-07T05:43:40;13.70;99.90
20946;DHT22;10632;51.276;7.116;2023-05-07T05:46:07;13.80;99.90
20946;DHT22;10632;51.276;7.116;2023-05-07T05:48:37;13.80;99.90
20946;DHT22;10632;51.276;7.116;2023-05-07T05:51:05;13.80;99.90
20946;DHT22;10632;51.276;7.116;2023-05-07T05:53:32;13.90;99.90
20946;DHT22;10632;51.276;7.116;2023-05-07T05:56:00;13.90;99.90
20946;DHT22;10632;51.276;7.116;2023-05-07T05:58:30;14.00;99.90
20946;DHT22;10632;51.276;7.116;2023-05-07T06:00:58;14.00;99.90
20946;DHT22;10632;51.276;7.116;2023-05-07T06:03:30;14.10;99.90
20946;DHT22;10632;51.276;7.116;2023-05-07T06:05:58;14.10;99.90
20946;DHT22;10632;51.276;7.116;2023-05-07T06:08:25;14.20;99.90
20946;DHT22;10632;51.276;7.116;2023-05-07T06:10:52;14.20;99.90
20946;DHT22;10632;51.276;7.116;2023-05-07T06:13:20;14.30;99.90
20946;DHT22;10632;51.276;7.116;2023-05-07T06:15:49;14.30;99.90
20946;DHT22;10632;51.276;7.116;2023-05-07T06:18:16;14.40;99.90
20946;DHT22;10632;51.276;7.116;2023-05-07T06:20:44;14.40;99.90
20946;DHT22;10632;51.276;7.116;2023-05-07T06:23:14;14.50;99.90
20946;DHT22;10632;51.276;7.116;2023-05-07T06:25:41;14.50;99.90
20946;DHT22;10632;51.276;7.116;2023-05-07T06:28:08;14.60;99.90
20946;DHT22;10632;51.276;7.116;2023-05-07T06:30:36;14.60;99.90
20946;DHT22;10632;51.276;7.116;2023-05-07T06:33:05;14.60;99.90
20946;DHT22;10632;51.276;7.116;2023-05-07T06:35:31;14.70;99.90
20946;DHT22;10632;51.276;7.116;2023-05-07T06:37:59;14.70;99.90
20946;DHT22;10632;51.276;7.116;2023-05-07T06:40:26;14.70;99.90
20946;DHT22;10632;51.276;7.116;2023-05-07T06:42:53;14.80;99.90
20946;DHT22;10632;51.276;7.116;2023-05-07T06:45:20;14.80;99.90
20946;DHT22;10632;51.276;7.116;2023-05-07T06:47:47;14.80;99.90
20946;DHT22;10632;51.276;7.116;2023-05-07T06:50:16;14.90;99.90
20946;DHT22;10632;51.276;7.116;2023-05-07T06:52:43;14.90;99.90
20946;DHT22;10632;51.276;7.116;2023-05-07T06:55:10;14.90;99.90
20946;DHT22;10632;51.276;7.116;2023-05-07T06:57:40;15.00;99.90
20946;DHT22;10632;51.276;7.116;2023-05-07T07:00:09;15.10;99.90
20946;DHT22;10632;51.276;7.116;2023-05-07T07:02:36;15.10;99.90
20946;DHT22;10632;51.276;7.116;2023-05-07T07:05:07;15.10;99.90
20946;DHT22;10632;51.276;7.116;2023-05-07T07:07:35;15.20;99.90
20946;DHT22;10632;51.276;7.116;2023-05-07T07:10:02;15.30;99.90
20946;DHT22;10632;51.276;7.116;2023-05-07T07:12:30;15.30;99.90
20946;DHT22;10632;51.276;7.116;2023-05-07T07:14:57;15.40;99.90
20946;DHT22;10632;51.276;7.116;2023-05-07T07:17:25;15.50;99.90
20946;DHT22;10632;51.276;7.116;2023-05-07T07:19:52;15.50;99.90
20946;DHT22;10632;51.276;7.116;2023-05-07T07:22:18;15.60;99.90
20946;DHT22;10632;51.276;7.116;2023-05-07T07:24:47;15.70;99.90
20946;DHT22;10632;51.276;7.116;2023-05-07T07:27:14;15.70;99.90
20946;DHT22;10632;51.276;7.116;2023-05-07T07:29:40;15.80;99.90
20946;DHT22;10632;51.276;7.116;2023-05-07T07:32:08;15.80;99.90
20946;DHT22;10632;51.276;7.116;2023-05-07T07:34:35;15.90;99.90
20946;DHT22;10632;51.276;7.116;2023-05-07T07:37:02;15.90;99.90
20946;DHT22;10632;51.276;7.116;2023-05-07T07:39:31;16.00;99.90
20946;DHT22;10632;51.276;7.116;2023-05-07T07:42:00;16.00;99.90
20946;DHT22;10632;51.276;7.116;2023-05-07T07:44:27;16.10;99.90
20946;DHT22;10632;51.276;7.116;2023-05-07T07:46:54;16.20;99.90
20946;DHT22;10632;51.276;7.116;2023-05-07T07:49:21;16.30;99.90
20946;DHT22;10632;51.276;7.116;2023-05-07T07:51:47;16.40;99.90
20946;DHT22;10632;51.276;7.116;2023-05-07T07:54:14;16.50;99.90
20946;DHT22;10632;51.276;7.116;2023-05-07T07:56:41;16.60;99.90
20946;DHT22;10632;51.276;7.116;2023-05-07T07:59:10;16.70;99.90
20946;DHT22;10632;51.276;7.116;2023-05-07T08:01:37;16.80;99.90
20946;DHT22;10632;51.276;7.116;2023-05-07T08:04:04;16.90;99.90
20946;DHT22;10632;51.276;7.116;2023-05-07T08:06:31;16.90;99.90
20946;DHT22;10632;51.276;7.116;2023-05-07T08:08:58;17.00;99.90
20946;DHT22;10632;51.276;7.116;2023-05-07T08:11:28;17.10;99.90
20946;DHT22;10632;51.276;7.116;2023-05-07T08:13:57;17.20;99.90
20946;DHT22;10632;51.276;7.116;2023-05-07T08:16:26;17.20;99.90
20946;DHT22;10632;51.276;7.116;2023-05-07T08:18:53;17.30;99.90
20946;DHT22;10632;51.276;7.116;2023-05-07T08:21:20;17.30;99.90
20946;DHT22;10632;51.276;7.116;2023-05-07T08:23:47;17.40;99.90
20946;DHT22;10632;51.276;7.116;2023-05-07T08:26:14;17.50;99.90
20946;DHT22;10632;51.276;7.116;2023-05-07T08:28:41;17.50;99.90
20946;DHT22;10632;51.276;7.116;2023-05-07T08:31:11;17.60;99.90
20946;DHT22;10632;51.276;7.116;2023-05-07T08:33:39;17.60;99.90
20946;DHT22;10632;51.276;7.116;2023-05-07T08:36:06;17.60;99.90
20946;DHT22;10632;51.276;7.116;2023-05-07T08:38:33;17.70;99.90
20946;DHT22;10632;51.276;7.116;2023-05-07T08:41:00;17.70;99.90
20946;DHT22;10632;51.276;7.116;2023-05-07T08:43:27;17.80;99.90
20946;DHT22;10632;51.276;7.116;2023-05-07T08:45:55;17.90;99.90
20946;DHT22;10632;51.276;7.116;2023-05-07T08:48:25;17.90;99.90
20946;DHT22;10632;51.276;7.116;2023-05-07T08:50:55;18.00;99.90
20946;DHT22;10632;51.276;7.116;2023-05-07T08:53:22;18.00;99.90
20946;DHT22;10632;51.276;7.116;2023-05-07T08:55:49;18.10;99.90
20946;DHT22;10632;51.276;7.116;2023-05-07T08:58:16;18.20;99.90
20946;DHT22;10632;51.276;7.116;2023-05-07T09:00:43;18.20;99.90
20946;DHT22;10632;51.276;7.116;2023-05-07T09:03:10;18.30;99.90
20946;DHT22;10632;51.276;7.116;2023-05-07T09:05:38;18.40;99.90
20946;DHT22;10632;51.276;7.116;2023-05-07T09:08:09;18.40;99.90
20946;DHT22;10632;51.276;7.116;2023-05-07T09:10:36;18.50;99.90
20946;DHT22;10632;51.276;7.116;2023-05-07T09:13:03;18.60;99.90
20946;DHT22;10632;51.276;7.116;2023-05-07T09:15:30;18.60;99.90
20946;DHT22;10632;51.276;7.116;2023-05-07T09:17:59;18.70;99.90
20946;DHT22;10632;51.276;7.116;2023-05-07T09:20:30;18.80;99.90
20946;DHT22;10632;51.276;7.116;2023-05-07T09:22:57;18.80;99.90
20946;DHT22;10632;51.276;7.116;2023-05-07T09:25:35;18.90;99.90
20946;DHT22;10632;51.276;7.116;2023-05-07T09:28:03;18.90;99.90
20946;DHT22;10632;51.276;7.116;2023-05-07T09:30:32;18.90;99.90
20946;DHT22;10632;51.276;7.116;2023-05-07T09:33:01;19.00;99.90
20946;DHT22;10632;51.276;7.116;2023-05-07T09:35:28;19.00;99.90
20946;DHT22;10632;51.276;7.116;2023-05-07T09:37:56;19.10;99.90
20946;DHT22;10632;51.276;7.116;2023-05-07T09:40:27;19.20;99.90
20946;DHT22;10632;51.276;7.116;2023-05-07T09:42:56;19.30;99.90
20946;DHT22;10632;51.276;7.116;2023-05-07T09:45:25;19.30;99.90
20946;DHT22;10632;51.276;7.116;2023-05-07T09:47:57;19.40;99.90
20946;DHT22;10632;51.276;7.116;2023-05-07T09:50:27;19.40;99.90
20946;DHT22;10632;51.276;7.116;2023-05-07T09:52:55;19.40;99.90
20946;DHT22;10632;51.276;7.116;2023-05-07T09:55:22;19.40;99.90
20946;DHT22;10632;51.276;7.116;2023-05-07T09:57:50;19.40;99.90
20946;DHT22;10632;51.276;7.116;2023-05-07T10:00:20;19.40;99.90
20946;DHT22;10632;51.276;7.116;2023-05-07T10:02:48;19.40;99.90
20946;DHT22;10632;51.276;7.116;2023-05-07T10:05:18;19.50;99.90
20946;DHT22;10632;51.276;7.116;2023-05-07T10:07:46;19.60;99.90
20946;DHT22;10632;51.276;7.116;2023-05-07T10:10:14;19.60;99.90
20946;DHT22;10632;51.276;7.116;2023-05-07T10:12:41;19.80;99.90
20946;DHT22;10632;51.276;7.116;2023-05-07T10:15:09;19.80;99.90
20946;DHT22;10632;51.276;7.116;2023-05-07T10:17:39;19.90;99.90
20946;DHT22;10632;51.276;7.116;2023-05-07T10:20:07;19.90;99.90
20946;DHT22;10632;51.276;7.116;2023-05-07T10:22:38;19.90;99.90
20946;DHT22;10632;51.276;7.116;2023-05-07T10:25:09;19.90;99.90
20946;DHT22;10632;51.276;7.116;2023-05-07T10:27:41;19.80;99.90
20946;DHT22;10632;51.276;7.116;2023-05-07T10:30:15;19.80;99.90
20946;DHT22;10632;51.276;7.116;2023-05-07T10:32:49;19.70;99.90
20946;DHT22;10632;51.276;7.116;2023-05-07T10:35:19;19.80;99.90
20946;DHT22;10632;51.276;7.116;2023-05-07T10:37:47;19.90;99.90
20946;DHT22;10632;51.276;7.116;2023-05-07T10:40:15;20.20;99.90
20946;DHT22;10632;51.276;7.116;2023-05-07T10:42:58;20.30;99.90
20946;DHT22;10632;51.276;7.116;2023-05-07T10:45:26;20.40;99.90
20946;DHT22;10632;51.276;7.116;2023-05-07T10:48:10;20.40;99.90
20946;DHT22;10632;51.276;7.116;2023-05-07T10:50:38;20.50;99.90
20946;DHT22;10632;51.276;7.116;2023-05-07T10:53:24;20.40;99.90
20946;DHT22;10632;51.276;7.116;2023-05-07T10:56:26;20.40;99.90
20946;DHT22;10632;51.276;7.116;2023-05-07T10:59:10;20.30;99.90
20946;DHT22;10632;51.276;7.116;2023-05-07T11:01:58;20.20;99.90
20946;DHT22;10632;51.276;7.116;2023-05-07T11:04:26;20.20;99.90
20946;DHT22;10632;51.276;7.116;2023-05-07T11:07:27;20.00;99.90
20946;DHT22;10632;51.276;7.116;2023-05-07T11:09:56;19.90;99.90
20946;DHT22;10632;51.276;7.116;2023-05-07T11:12:50;19.90;99.90
20946;DHT22;10632;51.276;7.116;2023-05-07T11:15:41;19.90;99.90
20946;DHT22;10632;51.276;7.116;2023-05-07T11:18:10;19.80;99.90
20946;DHT22;10632;51.276;7.116;2023-05-07T11:21:02;19.80;99.90
20946;DHT22;10632;51.276;7.116;2023-05-07T11:24:00;19.80;99.90
20946;DHT22;10632;51.276;7.116;2023-05-07T11:26:29;19.70;99.90
20946;DHT22;10632;51.276;7.116;2023-05-07T11:28:57;19.60;99.90
20946;DHT22;10632;51.276;7.116;2023-05-07T11:31:27;19.60;99.90
20946;DHT22;10632;51.276;7.116;2023-05-07T11:33:54;19.50;99.90
20946;DHT22;10632;51.276;7.116;2023-05-07T11:36:31;19.40;99.90
20946;DHT22;10632;51.276;7.116;2023-05-07T11:38:59;19.40;99.90
20946;DHT22;10632;51.276;7.116;2023-05-07T11:41:34;19.40;99.90
20946;DHT22;10632;51.276;7.116;2023-05-07T11:44:01;19.40;99.90
20946;DHT22;10632;51.276;7.116;2023-05-07T11:46:28;19.40;99.90
20946;DHT22;10632;51.276;7.116;2023-05-07T11:48:56;19.40;99.90
20946;DHT22;10632;51.276;7.116;2023-05-07T11:51:24;19.40;99.90
20946;DHT22;10632;51.276;7.116;2023-05-07T11:53:54;19.40;99.90
20946;DHT22;10632;51.276;7.116;2023-05-07T11:56:21;19.40;99.90
20946;DHT22;10632;51.276;7.116;2023-05-07T11:59:02;19.40;99.90
20946;DHT22;10632;51.276;7.116;2023-05-07T12:01:29;19.30;99.90
20946;DHT22;10632;51.276;7.116;2023-05-07T12:04:03;19.40;99.90
20946;DHT22;10632;51.276;7.116;2023-05-07T12:06:30;19.30;99.90
20946;DHT22;10632;51.276;7.116;2023-05-07T12:08:58;19.30;99.90
20946;DHT22;10632;51.276;7.116;2023-05-07T12:11:26;19.30;99.90
20946;DHT22;10632;51.276;7.116;2023-05-07T12:13:57;19.20;99.90
20946;DHT22;10632;51.276;7.116;2023-05-07T12:16:24;19.20;99.90
20946;DHT22;10632;51.276;7.116;2023-05-07T12:18:51;19.20;99.90
20946;DHT22;10632;51.276;7.116;2023-05-07T12:21:20;19.10;99.90
20946;DHT22;10632;51.276;7.116;2023-05-07T12:23:48;19.10;99.90
20946;DHT22;10632;51.276;7.116;2023-05-07T12:26:17;19.10;99.90
20946;DHT22;10632;51.276;7.116;2023-05-07T12:28:46;19.00;99.90
20946;DHT22;10632;51.276;7.116;2023-05-07T12:31:14;19.00;99.90
20946;DHT22;10632;51.276;7.116;2023-05-07T12:33:41;19.00;99.90
20946;DHT22;10632;51.276;7.116;2023-05-07T12:36:08;19.00;99.90
20946;DHT22;10632;51.276;7.116;2023-05-07T12:38:37;18.90;99.90
20946;DHT22;10632;51.276;7.116;2023-05-07T12:41:05;18.90;99.90
20946;DHT22;10632;51.276;7.116;2023-05-07T12:43:34;18.90;99.90
20946;DHT22;10632;51.276;7.116;2023-05-07T12:46:03;18.90;99.90
20946;DHT22;10632;51.276;7.116;2023-05-07T12:48:31;18.90;99.90
20946;DHT22;10632;51.276;7.116;2023-05-07T12:50:59;18.90;99.90
20946;DHT22;10632;51.276;7.116;2023-05-07T12:53:30;18.90;99.90
20946;DHT22;10632;51.276;7.116;2023-05-07T12:56:00;18.90;99.90
20946;DHT22;10632;51.276;7.116;2023-05-07T12:58:29;18.90;99.90
20946;DHT22;10632;51.276;7.116;2023-05-07T13:00:59;18.90;99.90
20946;DHT22;10632;51.276;7.116;2023-05-07T13:03:28;18.90;99.90
20946;DHT22;10632;51.276;7.116;2023-05-07T13:05:57;18.90;99.90
20946;DHT22;10632;51.276;7.116;2023-05-07T13:08:26;19.00;99.90
20946;DHT22;10632;51.276;7.116;2023-05-07T13:10:53;19.00;99.90
20946;DHT22;10632;51.276;7.116;2023-05-07T13:13:21;19.10;99.90
20946;DHT22;10632;51.276;7.116;2023-05-07T13:15:48;19.10;99.90
20946;DHT22;10632;51.276;7.116;2023-05-07T13:18:17;19.10;99.90
20946;DHT22;10632;51.276;7.116;2023-05-07T13:20:44;19.10;99.90
20946;DHT22;10632;51.276;7.116;2023-05-07T13:23:11;19.10;99.90
20946;DHT22;10632;51.276;7.116;2023-05-07T13:25:38;19.10;99.90
20946;DHT22;10632;51.276;7.116;2023-05-07T13:28:05;19.10;99.90
20946;DHT22;10632;51.276;7.116;2023-05-07T13:30:32;19.00;99.90
20946;DHT22;10632;51.276;7.116;2023-05-07T13:32:59;19.00;99.90
20946;DHT22;10632;51.276;7.116;2023-05-07T13:35:27;18.90;99.90
20946;DHT22;10632;51.276;7.116;2023-05-07T13:37:55;18.90;99.90
20946;DHT22;10632;51.276;7.116;2023-05-07T13:40:23;18.80;99.90
20946;DHT22;10632;51.276;7.116;2023-05-07T13:42:51;18.80;99.90
20946;DHT22;10632;51.276;7.116;2023-05-07T13:45:18;18.70;99.90
20946;DHT22;10632;51.276;7.116;2023-05-07T13:47:45;18.70;99.90
20946;DHT22;10632;51.276;7.116;2023-05-07T13:50:15;18.70;99.90
20946;DHT22;10632;51.276;7.116;2023-05-07T13:52:44;18.60;99.90
20946;DHT22;10632;51.276;7.116;2023-05-07T13:55:16;18.60;99.90
20946;DHT22;10632;51.276;7.116;2023-05-07T13:57:43;18.50;99.90
20946;DHT22;10632;51.276;7.116;2023-05-07T14:00:11;18.40;99.90
20946;DHT22;10632;51.276;7.116;2023-05-07T14:02:38;18.40;99.90
20946;DHT22;10632;51.276;7.116;2023-05-07T14:05:06;18.30;99.90
20946;DHT22;10632;51.276;7.116;2023-05-07T14:07:34;18.30;99.90
20946;DHT22;10632;51.276;7.116;2023-05-07T14:10:03;18.20;99.90
20946;DHT22;10632;51.276;7.116;2023-05-07T14:12:31;18.20;99.90
20946;DHT22;10632;51.276;7.116;2023-05-07T14:14:59;18.20;99.90
20946;DHT22;10632;51.276;7.116;2023-05-07T14:17:26;18.10;99.90
20946;DHT22;10632;51.276;7.116;2023-05-07T14:19:53;18.10;99.90
20946;DHT22;10632;51.276;7.116;2023-05-07T14:22:21;18.10;99.90
20946;DHT22;10632;51.276;7.116;2023-05-07T14:24:48;18.00;99.90
20946;DHT22;10632;51.276;7.116;2023-05-07T14:27:17;17.90;99.90
20946;DHT22;10632;51.276;7.116;2023-05-07T14:29:44;17.90;99.90
20946;DHT22;10632;51.276;7.116;2023-05-07T14:32:16;17.80;99.90
20946;DHT22;10632;51.276;7.116;2023-05-07T14:34:43;17.80;99.90
20946;DHT22;10632;51.276;7.116;2023-05-07T14:37:10;17.70;99.90
20946;DHT22;10632;51.276;7.116;2023-05-07T14:39:37;17.70;99.90
20946;DHT22;10632;51.276;7.116;2023-05-07T14:42:04;17.60;99.90
20946;DHT22;10632;51.276;7.116;2023-05-07T14:44:35;17.60;99.90
20946;DHT22;10632;51.276;7.116;2023-05-07T14:47:02;17.60;99.90
20946;DHT22;10632;51.276;7.116;2023-05-07T14:49:29;17.60;99.90
20946;DHT22;10632;51.276;7.116;2023-05-07T14:51:57;17.50;99.90
20946;DHT22;10632;51.276;7.116;2023-05-07T14:54:24;17.50;99.90
20946;DHT22;10632;51.276;7.116;2023-05-07T14:56:54;17.50;99.90
20946;DHT22;10632;51.276;7.116;2023-05-07T14:59:24;17.40;99.90
20946;DHT22;10632;51.276;7.116;2023-05-07T15:01:54;17.30;99.90
20946;DHT22;10632;51.276;7.116;2023-05-07T15:04:21;17.30;99.90
20946;DHT22;10632;51.276;7.116;2023-05-07T15:06:48;17.20;99.90
20946;DHT22;10632;51.276;7.116;2023-05-07T15:09:15;17.10;99.90
20946;DHT22;10632;51.276;7.116;2023-05-07T15:11:45;17.10;99.90
20946;DHT22;10632;51.276;7.116;2023-05-07T15:14:12;17.00;99.90
20946;DHT22;10632;51.276;7.116;2023-05-07T15:16:39;17.00;99.90
20946;DHT22;10632;51.276;7.116;2023-05-07T15:19:07;17.00;99.90
20946;DHT22;10632;51.276;7.116;2023-05-07T15:21:34;16.90;99.90
20946;DHT22;10632;51.276;7.116;2023-05-07T15:24:01;16.90;99.90
20946;DHT22;10632;51.276;7.116;2023-05-07T15:26:29;16.80;99.90
20946;DHT22;10632;51.276;7.116;2023-05-07T15:28:56;16.80;99.90
20946;DHT22;10632;51.276;7.116;2023-05-07T15:31:23;16.70;99.90
20946;DHT22;10632;51.276;7.116;2023-05-07T15:33:50;16.70;99.90
20946;DHT22;10632;51.276;7.116;2023-05-07T15:36:19;16.70;99.90
20946;DHT22;10632;51.276;7.116;2023-05-07T15:38:46;16.70;99.90
20946;DHT22;10632;51.276;7.116;2023-05-07T15:41:14;16.60;99.90